createdAt,value
2019-03-21T00:04:35.991Z,22.23
2019-03-21T00:10:21.963Z,15.57
2019-03-21T00:12:50.234Z,25.70
2019-03-21T00:15:21.012Z,22.53
2019-03-21T00:17:50.801Z,22.17
2019-03-21T00:20:19.104Z,19.30
2019-03-21T00:22:47.494Z,15.50
2019-03-21T00:25:18.491Z,17.33
2019-03-21T00:31:02.401Z,18.70
2019-03-21T00:36:59.123Z,27.03
2019-03-21T00:39:32.613Z,16.77
2019-03-21T00:41:57.369Z,16.53
2019-03-21T00:44:25.731Z,15.50
2019-03-21T00:46:54.161Z,22.37
2019-03-21T00:52:38.051Z,16.30
2019-03-21T00:55:07.906Z,21.93
2019-03-21T00:57:36.282Z,22.53
2019-03-21T01:03:20.081Z,17.87
2019-03-21T01:09:06.468Z,20.60
2019-03-21T01:14:51.729Z,17.50
2019-03-21T01:17:20.001Z,19.20
2019-03-21T01:19:49.748Z,18.57
2019-03-21T01:22:18.105Z,25.53
2019-03-21T01:24:46.449Z,21.00
2019-03-21T01:27:15.054Z,21.77
2019-03-21T01:29:43.329Z,15.50
2019-03-21T01:35:27.762Z,19.73
2019-03-21T01:41:13.728Z,22.43
2019-03-21T01:46:58.016Z,18.73
2019-03-21T01:49:26.517Z,27.10
2019-03-21T01:51:54.926Z,21.73
2019-03-21T01:54:23.189Z,16.47
2019-03-21T01:56:51.570Z,20.40
2019-03-21T01:59:19.821Z,20.87
2019-03-21T02:07:41.537Z,24.23
2019-03-21T02:10:11.644Z,17.27
2019-03-21T02:12:39.921Z,18.53
2019-03-21T02:15:10.039Z,23.03
2019-03-21T02:17:38.409Z,20.83
2019-03-21T02:20:09.289Z,15.37
2019-03-21T02:22:37.581Z,18.00
2019-03-21T02:25:07.517Z,27.80
2019-03-21T02:27:35.981Z,21.10
2019-03-21T02:30:05.727Z,24.90
2019-03-21T02:32:34.250Z,20.20
2019-03-21T02:35:02.818Z,21.43
2019-03-21T02:37:32.147Z,20.07
2019-03-21T02:40:00.933Z,18.70
2019-03-21T02:42:29.851Z,23.97
2019-03-21T02:45:08.341Z,15.53
2019-03-21T02:47:28.237Z,17.83
2019-03-21T02:49:56.530Z,19.10
2019-03-21T02:52:24.903Z,23.97
2019-03-21T02:54:53.161Z,22.33
2019-03-21T02:57:21.577Z,22.93
2019-03-21T02:59:50.005Z,20.70
2019-03-21T03:02:18.267Z,16.93
2019-03-21T03:04:46.902Z,26.23
2019-03-21T03:07:15.223Z,19.90
2019-03-21T03:09:43.582Z,17.50
2019-03-21T03:12:11.836Z,23.87
2019-03-21T03:14:40.237Z,23.53
2019-03-21T03:17:08.718Z,20.87
2019-03-21T03:19:36.990Z,27.17
2019-03-21T03:22:06.347Z,16.80
2019-03-21T03:24:34.570Z,23.60
2019-03-21T03:27:02.982Z,24.90
2019-03-21T03:29:31.309Z,20.97
2019-03-21T03:31:59.601Z,23.00
2019-03-21T03:34:27.982Z,27.73
2019-03-21T03:36:56.253Z,23.10
2019-03-21T03:39:24.569Z,15.70
2019-03-21T03:41:52.963Z,21.73
2019-03-21T03:44:21.261Z,18.67
2019-03-21T03:46:49.717Z,26.30
2019-03-21T03:49:18.121Z,27.80
2019-03-21T03:51:46.420Z,30.53
2019-03-21T03:54:14.700Z,26.40
2019-03-21T03:56:43.198Z,23.50
2019-03-21T03:59:11.666Z,22.93
2019-03-21T04:01:40.300Z,22.27
2019-03-21T04:04:08.553Z,24.80
2019-03-21T04:06:36.903Z,29.93
2019-03-21T04:09:06.292Z,33.50
2019-03-21T04:11:34.610Z,23.57
2019-03-21T04:14:03.570Z,31.10
2019-03-21T04:16:32.500Z,29.37
2019-03-21T04:19:00.755Z,26.67
2019-03-21T04:21:29.169Z,30.47
2019-03-21T04:23:59.809Z,25.47
2019-03-21T04:26:29.080Z,21.27
2019-03-21T04:28:57.446Z,36.10
2019-03-21T04:31:25.751Z,44.30
2019-03-21T04:33:55.512Z,23.70
2019-03-21T04:36:23.872Z,31.47
2019-03-21T04:38:52.296Z,21.00
2019-03-21T04:41:20.674Z,20.10
2019-03-21T04:43:49.141Z,26.93
2019-03-21T04:46:17.476Z,34.93
2019-03-21T04:48:45.850Z,25.60
2019-03-21T04:51:14.284Z,22.23
2019-03-21T04:53:42.748Z,21.07
2019-03-21T04:56:11.041Z,34.97
2019-03-21T04:58:39.509Z,28.33
2019-03-21T05:01:07.815Z,26.57
2019-03-21T05:03:36.164Z,28.67
2019-03-21T05:06:04.630Z,32.70
2019-03-21T05:08:33.057Z,25.30
2019-03-21T05:11:01.401Z,26.57
2019-03-21T05:13:29.721Z,25.67
2019-03-21T05:15:57.989Z,30.37
2019-03-21T05:18:27.809Z,26.83
2019-03-21T05:20:58.076Z,28.33
2019-03-21T05:23:26.482Z,34.17
2019-03-21T05:25:54.853Z,21.80
2019-03-21T05:28:23.173Z,20.83
2019-03-21T05:30:54.101Z,27.17
2019-03-21T05:33:22.576Z,31.53
2019-03-21T05:35:50.921Z,25.63
2019-03-21T05:38:20.283Z,25.30
2019-03-21T05:40:48.749Z,30.93
2019-03-21T05:43:18.468Z,27.43
2019-03-21T05:45:46.904Z,25.07
2019-03-21T05:48:15.345Z,28.07
2019-03-21T05:50:43.787Z,28.73
2019-03-21T05:53:13.201Z,24.67
2019-03-21T05:55:41.562Z,26.77
2019-03-21T05:58:09.861Z,28.33
2019-03-21T06:00:40.480Z,29.63
2019-03-21T06:03:10.650Z,23.37
2019-03-21T06:05:40.209Z,24.50
2019-03-21T06:08:10.961Z,27.00
2019-03-21T06:10:39.309Z,24.87
2019-03-21T06:13:07.617Z,23.10
2019-03-21T06:15:37.402Z,27.50
2019-03-21T06:18:05.786Z,19.13
2019-03-21T06:20:35.607Z,31.30
2019-03-21T06:23:05.301Z,28.63
2019-03-21T06:25:35.280Z,29.20
2019-03-21T06:28:06.616Z,27.17
2019-03-21T06:30:35.389Z,29.47
2019-03-21T06:33:03.871Z,29.73
2019-03-21T06:35:32.171Z,25.93
2019-03-21T06:38:00.519Z,25.07
2019-03-21T06:40:28.900Z,27.03
2019-03-21T06:42:57.259Z,34.00
2019-03-21T06:45:25.633Z,40.43
2019-03-21T06:47:55.769Z,38.13
2019-03-21T06:50:24.151Z,26.33
2019-03-21T06:52:53.454Z,29.03
2019-03-21T06:55:21.708Z,27.23
2019-03-21T06:57:50.082Z,32.20
2019-03-21T07:00:18.370Z,28.90
2019-03-21T07:02:47.098Z,26.73
2019-03-21T07:05:15.584Z,32.13
2019-03-21T07:07:43.937Z,28.40
2019-03-21T07:10:12.411Z,25.67
2019-03-21T07:12:40.662Z,31.47
2019-03-21T07:15:10.100Z,37.47
2019-03-21T07:17:38.391Z,32.60
2019-03-21T07:20:08.097Z,33.10
2019-03-21T07:22:38.417Z,26.63
2019-03-21T07:25:07.480Z,40.77
2019-03-21T07:27:35.792Z,29.87
2019-03-21T07:30:05.661Z,33.40
2019-03-21T07:32:33.997Z,27.13
2019-03-21T07:35:02.244Z,23.80
2019-03-21T07:37:32.432Z,26.03
2019-03-21T07:40:01.004Z,26.20
2019-03-21T07:42:29.290Z,31.30
2019-03-21T07:44:57.490Z,23.90
2019-03-21T07:47:25.783Z,27.10
2019-03-21T07:49:54.084Z,24.73
2019-03-21T07:52:22.403Z,23.87
2019-03-21T07:54:50.853Z,31.17
2019-03-21T07:57:19.118Z,36.47
2019-03-21T07:59:47.490Z,29.10
2019-03-21T08:02:19.899Z,24.83
2019-03-21T08:04:50.209Z,28.23
2019-03-21T08:07:18.542Z,29.83
2019-03-21T08:09:46.809Z,27.77
2019-03-21T08:12:17.282Z,28.77
2019-03-21T08:14:46.990Z,34.53
2019-03-21T08:17:15.155Z,25.67
2019-03-21T08:19:43.421Z,29.10
2019-03-21T08:22:11.761Z,27.77
2019-03-21T08:24:39.887Z,33.10
2019-03-21T08:27:08.117Z,27.70
2019-03-21T08:29:36.483Z,25.80
2019-03-21T08:32:04.729Z,28.33
2019-03-21T08:34:33.089Z,23.57
2019-03-21T08:37:01.268Z,23.63
2019-03-21T08:39:29.469Z,31.67
2019-03-21T08:41:57.883Z,31.73
2019-03-21T08:44:27.645Z,24.23
2019-03-21T08:46:55.857Z,31.37
2019-03-21T08:49:24.096Z,27.90
2019-03-21T08:51:52.463Z,33.10
2019-03-21T08:54:20.671Z,34.57
2019-03-21T08:56:48.996Z,35.27
2019-03-21T08:59:18.789Z,29.77
2019-03-21T09:01:47.017Z,36.57
2019-03-21T09:04:16.654Z,27.93
2019-03-21T09:06:44.928Z,30.27
2019-03-21T09:09:13.059Z,31.77
2019-03-21T09:11:41.237Z,32.40
2019-03-21T09:14:09.617Z,27.03
2019-03-21T09:16:37.968Z,23.27
2019-03-21T09:19:06.265Z,25.33
2019-03-21T09:21:34.716Z,28.20
2019-03-21T09:24:03.132Z,31.67
2019-03-21T09:26:32.798Z,32.97
2019-03-21T09:29:01.171Z,34.97
2019-03-21T09:31:29.406Z,33.27
2019-03-21T09:34:01.025Z,36.00
2019-03-21T09:36:30.299Z,22.43
2019-03-21T09:38:58.539Z,26.70
2019-03-21T09:41:26.821Z,32.80
2019-03-21T09:43:55.172Z,34.20
2019-03-21T09:46:23.510Z,31.40
2019-03-21T09:48:51.729Z,27.33
2019-03-21T09:51:30.464Z,30.03
2019-03-21T09:53:50.390Z,28.23
2019-03-21T09:56:18.726Z,26.77
2019-03-21T09:58:47.059Z,29.07
2019-03-21T10:01:15.423Z,29.73
2019-03-21T10:03:43.657Z,27.33
2019-03-21T10:06:11.874Z,28.23
2019-03-21T10:08:44.081Z,22.17
2019-03-21T10:11:21.730Z,23.33
2019-03-21T10:13:49.944Z,20.47
2019-03-21T10:16:18.204Z,24.40
2019-03-21T10:18:46.329Z,21.67
2019-03-21T10:21:14.629Z,26.70
2019-03-21T10:23:42.891Z,23.87
2019-03-21T10:26:11.174Z,27.50
2019-03-21T10:28:39.444Z,30.00
2019-03-21T10:31:07.662Z,26.63
2019-03-21T10:33:35.882Z,24.67
2019-03-21T10:36:04.116Z,27.57
2019-03-21T10:38:32.519Z,37.10
2019-03-21T10:41:01.129Z,21.90
2019-03-21T10:43:29.369Z,26.57
2019-03-21T10:45:57.561Z,20.30
2019-03-21T10:48:25.874Z,27.37
2019-03-21T10:50:54.362Z,19.40
2019-03-21T10:53:22.712Z,21.80
2019-03-21T10:55:50.850Z,31.00
2019-03-21T10:58:18.971Z,26.43
2019-03-21T11:00:47.371Z,27.03
2019-03-21T11:03:15.683Z,25.07
2019-03-21T11:05:43.954Z,29.67
2019-03-21T11:08:12.253Z,27.67
2019-03-21T11:10:40.593Z,29.60
2019-03-21T11:13:09.500Z,24.77
2019-03-21T11:15:37.870Z,27.57
2019-03-21T11:18:06.114Z,26.07
2019-03-21T11:20:35.661Z,28.00
2019-03-21T11:23:04.828Z,21.50
2019-03-21T11:25:33.229Z,18.20
2019-03-21T11:28:01.477Z,24.70
2019-03-21T11:30:36.639Z,35.03
2019-03-21T11:33:05.080Z,24.23
2019-03-21T11:35:33.413Z,19.43
2019-03-21T11:38:01.780Z,31.27
2019-03-21T11:40:30.195Z,33.83
2019-03-21T11:42:58.485Z,19.33
2019-03-21T11:45:27.416Z,17.83
2019-03-21T11:47:55.764Z,23.20
2019-03-21T11:50:24.082Z,19.20
2019-03-21T11:52:53.383Z,19.40
2019-03-21T11:55:21.837Z,20.47
2019-03-21T11:57:50.236Z,17.17
2019-03-21T12:00:18.681Z,17.90
2019-03-21T12:02:46.928Z,17.10
2019-03-21T12:05:15.251Z,18.90
2019-03-21T12:07:45.070Z,13.83
2019-03-21T12:10:13.861Z,14.67
2019-03-21T12:12:42.335Z,16.00
2019-03-21T12:15:10.911Z,23.77
2019-03-21T12:17:41.896Z,22.90
2019-03-21T12:20:12.441Z,17.70
2019-03-21T12:22:40.731Z,20.37
2019-03-21T12:25:09.357Z,18.00
2019-03-21T12:27:37.611Z,14.90
2019-03-21T12:30:07.460Z,21.97
2019-03-21T12:32:35.787Z,22.87
2019-03-21T12:35:05.837Z,22.83
2019-03-21T12:37:34.169Z,15.33
2019-03-21T12:40:02.719Z,16.93
2019-03-21T12:42:31.189Z,13.83
2019-03-21T12:44:59.670Z,17.93
2019-03-21T12:47:31.472Z,18.47
2019-03-21T12:49:57.956Z,17.07
2019-03-21T12:52:26.278Z,13.27
2019-03-21T12:54:54.621Z,16.37
2019-03-21T12:57:22.990Z,19.83
2019-03-21T12:59:51.227Z,19.90
2019-03-21T13:02:19.376Z,22.93
2019-03-21T13:04:47.719Z,21.00
2019-03-21T13:07:16.778Z,18.77
2019-03-21T13:09:45.195Z,24.53
2019-03-21T13:12:13.449Z,20.80
2019-03-21T13:14:41.769Z,16.97
2019-03-21T13:17:14.016Z,20.20
2019-03-21T13:19:42.579Z,22.90
2019-03-21T13:22:10.955Z,22.13
2019-03-21T13:24:39.269Z,18.10
2019-03-21T13:27:07.641Z,16.80
2019-03-21T13:29:35.923Z,13.57
2019-03-21T13:32:04.224Z,13.97
2019-03-21T13:34:35.569Z,14.83
2019-03-21T13:37:05.154Z,15.13
2019-03-21T13:39:33.456Z,17.50
2019-03-21T13:42:01.686Z,22.23
2019-03-21T13:44:29.987Z,20.40
2019-03-21T13:46:58.132Z,17.80
2019-03-21T13:49:26.402Z,15.10
2019-03-21T13:51:54.658Z,18.03
2019-03-21T13:54:23.005Z,15.30
2019-03-21T13:56:51.502Z,13.37
2019-03-21T13:59:19.889Z,11.80
2019-03-21T14:01:48.131Z,15.30
2019-03-21T14:04:16.431Z,9.40
2019-03-21T14:06:44.769Z,10.17
2019-03-21T14:09:13.101Z,11.33
2019-03-21T14:11:41.450Z,11.23
2019-03-21T14:14:09.649Z,18.20
2019-03-21T14:16:37.947Z,10.80
2019-03-21T14:19:07.285Z,10.40
2019-03-21T14:21:35.624Z,14.80
2019-03-21T14:24:03.961Z,11.63
2019-03-21T14:26:32.315Z,10.80
2019-03-21T14:29:11.895Z,11.97
2019-03-21T14:31:30.469Z,16.13
2019-03-21T14:34:02.822Z,9.37
2019-03-21T14:36:31.485Z,11.97
2019-03-21T14:38:59.748Z,16.87
2019-03-21T14:41:28.262Z,15.67
2019-03-21T14:44:00.057Z,13.70
2019-03-21T14:46:28.642Z,12.03
2019-03-21T14:48:56.989Z,11.87
2019-03-21T14:51:25.241Z,18.40
2019-03-21T14:53:53.420Z,21.10
2019-03-21T14:56:21.692Z,16.27
2019-03-21T14:58:50.101Z,25.33
2019-03-21T15:01:18.369Z,21.03
2019-03-21T15:03:46.700Z,21.17
2019-03-21T15:06:15.109Z,15.47
2019-03-21T15:08:43.556Z,20.83
2019-03-21T15:11:17.019Z,21.53
2019-03-21T15:13:42.094Z,14.90
2019-03-21T15:16:10.265Z,21.43
2019-03-21T15:18:38.477Z,24.87
2019-03-21T15:21:07.893Z,19.83
2019-03-21T15:23:40.896Z,21.03
2019-03-21T15:26:06.044Z,19.07
2019-03-21T15:28:34.340Z,18.40
2019-03-21T15:31:02.578Z,19.17
2019-03-21T15:33:30.861Z,35.23
2019-03-21T15:35:59.255Z,21.17
2019-03-21T15:38:27.865Z,26.27
2019-03-21T15:40:56.448Z,26.30
2019-03-21T15:43:24.847Z,17.97
2019-03-21T15:45:53.173Z,21.37
2019-03-21T15:48:21.505Z,24.23
2019-03-21T15:50:49.721Z,20.80
2019-03-21T15:53:18.159Z,21.17
2019-03-21T15:55:46.469Z,17.13
2019-03-21T15:58:14.741Z,27.27
2019-03-21T16:00:43.555Z,19.17
2019-03-21T16:03:12.533Z,21.33
2019-03-21T16:05:44.005Z,20.70
2019-03-21T16:08:12.574Z,17.53
2019-03-21T16:10:40.776Z,17.83
2019-03-21T16:13:09.242Z,23.67
2019-03-21T16:15:37.678Z,18.30
2019-03-21T16:18:07.064Z,22.87
2019-03-21T16:20:35.386Z,21.50
2019-03-21T16:23:03.688Z,25.70
2019-03-21T16:25:31.983Z,27.67
2019-03-21T16:28:00.258Z,18.27
2019-03-21T16:30:28.450Z,17.43
2019-03-21T16:32:56.705Z,24.27
2019-03-21T16:35:24.922Z,24.33
2019-03-21T16:37:53.209Z,20.97
2019-03-21T16:40:21.323Z,19.70
2019-03-21T16:42:49.429Z,25.17
2019-03-21T16:45:17.691Z,29.63
2019-03-21T16:47:47.005Z,21.77
2019-03-21T16:50:15.195Z,20.37
2019-03-21T16:52:44.409Z,23.70
2019-03-21T16:55:13.731Z,17.27
2019-03-21T16:57:42.121Z,17.23
2019-03-21T17:00:11.859Z,22.17
2019-03-21T17:02:40.848Z,29.90
2019-03-21T17:05:09.087Z,17.17
2019-03-21T17:07:37.406Z,18.37
2019-03-21T17:10:06.269Z,23.40
2019-03-21T17:12:34.726Z,25.90
2019-03-21T17:15:03.156Z,34.50
2019-03-21T17:17:31.448Z,37.93
2019-03-21T17:19:59.664Z,37.97
2019-03-21T17:22:28.171Z,23.80
2019-03-21T17:24:56.588Z,24.40
2019-03-21T17:27:25.559Z,22.97
2019-03-21T17:29:54.037Z,25.80
2019-03-21T17:32:22.246Z,24.13
2019-03-21T17:34:50.493Z,24.87
2019-03-21T17:37:18.738Z,21.37
2019-03-21T17:39:47.111Z,23.77
2019-03-21T17:42:15.440Z,23.90
2019-03-21T17:44:43.762Z,21.10
2019-03-21T17:47:12.103Z,29.23
2019-03-21T17:49:48.403Z,29.13
2019-03-21T17:52:19.110Z,46.47
2019-03-21T17:54:47.341Z,36.83
2019-03-21T17:57:15.649Z,30.30
2019-03-21T17:59:43.912Z,32.73
2019-03-21T18:02:12.449Z,19.70
2019-03-21T18:04:40.878Z,30.90
2019-03-21T18:07:10.119Z,26.67
2019-03-21T18:09:38.465Z,33.00
2019-03-21T18:12:06.816Z,33.30
2019-03-21T18:14:35.012Z,33.70
2019-03-21T18:17:03.266Z,28.67
2019-03-21T18:19:31.590Z,33.23
2019-03-21T18:21:59.993Z,25.03
2019-03-21T18:24:34.486Z,34.23
2019-03-21T18:27:04.812Z,33.20
2019-03-21T18:29:33.209Z,36.37
2019-03-21T18:32:01.577Z,30.73
2019-03-21T18:34:29.797Z,55.97
2019-03-21T18:36:58.174Z,88.47
2019-03-21T18:39:26.574Z,124.27
2019-03-21T18:41:55.158Z,98.90
2019-03-21T18:44:23.864Z,64.93
2019-03-21T18:46:52.052Z,73.80
2019-03-21T18:49:20.287Z,48.70
2019-03-21T18:51:48.580Z,40.27
2019-03-21T18:54:27.203Z,57.23
2019-03-21T18:56:57.947Z,54.40
2019-03-21T18:59:26.341Z,43.67
2019-03-21T19:01:58.831Z,69.30
2019-03-21T19:04:27.981Z,58.63
2019-03-21T19:06:59.091Z,50.57
2019-03-21T19:09:28.064Z,60.37
2019-03-21T19:11:56.829Z,37.67
2019-03-21T19:14:25.128Z,32.37
2019-03-21T19:16:53.573Z,40.80
2019-03-21T19:19:22.008Z,40.10
2019-03-21T19:21:50.502Z,41.57
2019-03-21T19:24:18.963Z,43.63
2019-03-21T19:26:54.315Z,44.47
2019-03-21T19:29:34.074Z,35.63
2019-03-21T19:32:09.316Z,26.40
2019-03-21T19:34:44.190Z,40.90
2019-03-21T19:37:26.413Z,33.60
2019-03-21T19:40:02.514Z,28.90
2019-03-21T19:42:30.822Z,32.40
2019-03-21T19:44:59.121Z,34.83
2019-03-21T19:54:01.364Z,44.83
2019-03-21T19:56:29.927Z,37.53
2019-03-21T19:59:01.013Z,29.70
2019-03-21T20:01:28.131Z,35.07
2019-03-21T20:03:56.551Z,34.07
2019-03-21T20:06:29.565Z,38.60
2019-03-21T20:08:59.490Z,36.57
2019-03-21T20:11:28.010Z,32.70
2019-03-21T20:13:56.369Z,33.73
2019-03-21T20:16:24.710Z,30.80
2019-03-21T20:19:01.480Z,32.90
2019-03-21T20:21:32.045Z,30.13
2019-03-21T20:24:00.361Z,35.97
2019-03-21T20:26:28.930Z,28.30
2019-03-21T20:28:57.246Z,37.07
2019-03-21T20:31:25.433Z,31.87
2019-03-21T20:33:57.282Z,35.73
2019-03-21T20:36:26.917Z,33.93
2019-03-21T20:38:55.249Z,34.03
2019-03-21T20:44:28.326Z,31.07
2019-03-21T20:50:13.134Z,24.30
2019-03-21T20:55:58.989Z,28.77
2019-03-21T21:01:43.480Z,27.43
2019-03-21T21:07:28.227Z,34.17
2019-03-21T21:13:17.342Z,36.37
2019-03-21T21:19:05.400Z,39.53
2019-03-21T21:24:49.798Z,32.83
2019-03-21T21:30:34.194Z,34.27
2019-03-21T21:33:02.647Z,41.63
2019-03-21T21:38:43.137Z,39.23
2019-03-21T21:44:30.015Z,40.30
2019-03-21T21:50:25.576Z,41.77
2019-03-21T21:56:17.473Z,40.07
2019-03-21T22:01:55.982Z,53.83
2019-03-21T22:07:40.297Z,43.67
2019-03-21T22:10:09.272Z,40.53
2019-03-21T22:15:54.037Z,45.63
2019-03-21T22:21:28.361Z,44.67
2019-03-21T22:27:13.965Z,43.13
2019-03-21T22:29:46.064Z,46.90
2019-03-21T22:35:18.662Z,44.67
2019-03-21T22:37:46.941Z,41.47
2019-03-21T22:40:16.407Z,38.17
2019-03-21T22:42:44.746Z,46.33
2019-03-21T22:45:13.615Z,43.93
2019-03-21T22:47:42.078Z,36.40
2019-03-21T22:50:11.949Z,43.97
2019-03-21T22:52:40.169Z,45.73
2019-03-21T22:55:08.587Z,37.20
2019-03-21T22:57:38.771Z,44.93
2019-03-21T23:00:09.751Z,42.47
2019-03-21T23:02:39.755Z,49.93
2019-03-21T23:05:08.344Z,42.10
2019-03-21T23:07:39.566Z,41.73
2019-03-21T23:10:09.370Z,41.60
2019-03-21T23:12:37.741Z,35.30
2019-03-21T23:15:07.201Z,45.50
2019-03-21T23:17:35.652Z,42.50
2019-03-21T23:20:06.889Z,37.20
2019-03-21T23:22:35.368Z,41.57
2019-03-21T23:25:04.777Z,43.63
2019-03-21T23:27:33.152Z,42.63
2019-03-21T23:30:01.549Z,45.43
2019-03-21T23:32:32.294Z,43.07
2019-03-21T23:35:01.159Z,38.60
2019-03-21T23:37:29.654Z,37.03
2019-03-21T23:39:57.912Z,29.77
2019-03-21T23:42:26.284Z,45.83
2019-03-21T23:44:54.544Z,35.40
2019-03-21T23:47:22.935Z,45.57
2019-03-21T23:49:51.211Z,39.07
2019-03-21T23:52:19.641Z,48.13
2019-03-21T23:54:47.992Z,44.53
2019-03-21T23:57:16.224Z,54.33
2019-03-21T23:59:44.595Z,41.87
